sensor_id;sensor_type;location;lat;lon;timestamp;temperature;humidity
25914;DHT22;13718;50.922;5.346;2022-08-19T00:01:44;20.20;99.90
25914;DHT22;13718;50.922;5.346;2022-08-19T00:04:12;20.20;99.90
25914;DHT22;13718;50.922;5.346;2022-08-19T00:06:40;20.30;99.90
25914;DHT22;13718;50.922;5.346;2022-08-19T00:09:09;20.20;99.90
25914;DHT22;13718;50.922;5.346;2022-08-19T00:11:35;20.20;99.90
25914;DHT22;13718;50.922;5.346;2022-08-19T00:14:03;20.10;99.90
25914;DHT22;13718;50.922;5.346;2022-08-19T00:16:29;20.00;99.90
25914;DHT22;13718;50.922;5.346;2022-08-19T00:18:55;20.10;99.90
25914;DHT22;13718;50.922;5.346;2022-08-19T00:21:21;20.00;99.90
25914;DHT22;13718;50.922;5.346;2022-08-19T00:23:47;20.00;99.90
25914;DHT22;13718;50.922;5.346;2022-08-19T00:26:13;20.00;99.90
25914;DHT22;13718;50.922;5.346;2022-08-19T00:28:38;19.90;99.90
25914;DHT22;13718;50.922;5.346;2022-08-19T00:31:05;19.80;99.90
25914;DHT22;13718;50.922;5.346;2022-08-19T00:33:32;19.80;99.90
25914;DHT22;13718;50.922;5.346;2022-08-19T00:36:02;19.70;99.90
25914;DHT22;13718;50.922;5.346;2022-08-19T00:38:30;19.60;99.90
25914;DHT22;13718;50.922;5.346;2022-08-19T00:40:56;19.60;99.90
25914;DHT22;13718;50.922;5.346;2022-08-19T00:43:24;19.50;99.90
25914;DHT22;13718;50.922;5.346;2022-08-19T00:45:51;19.40;99.90
25914;DHT22;13718;50.922;5.346;2022-08-19T00:48:17;19.40;99.90
25914;DHT22;13718;50.922;5.346;2022-08-19T00:50:44;19.40;99.90
25914;DHT22;13718;50.922;5.346;2022-08-19T00:53:15;19.40;99.90
25914;DHT22;13718;50.922;5.346;2022-08-19T00:55:45;19.30;99.90
25914;DHT22;13718;50.922;5.346;2022-08-19T00:58:14;19.30;99.90
25914;DHT22;13718;50.922;5.346;2022-08-19T01:00:40;19.30;99.90
25914;DHT22;13718;50.922;5.346;2022-08-19T01:03:17;19.30;99.90
25914;DHT22;13718;50.922;5.346;2022-08-19T01:05:44;19.30;99.90
25914;DHT22;13718;50.922;5.346;2022-08-19T01:08:11;19.30;99.90
25914;DHT22;13718;50.922;5.346;2022-08-19T01:10:57;19.20;99.90
25914;DHT22;13718;50.922;5.346;2022-08-19T01:13:26;19.30;99.90
25914;DHT22;13718;50.922;5.346;2022-08-19T01:15:56;19.20;99.90
25914;DHT22;13718;50.922;5.346;2022-08-19T01:18:23;19.30;99.90
25914;DHT22;13718;50.922;5.346;2022-08-19T01:20:50;19.20;99.90
25914;DHT22;13718;50.922;5.346;2022-08-19T01:23:17;19.20;99.90
25914;DHT22;13718;50.922;5.346;2022-08-19T01:25:49;19.20;99.90
25914;DHT22;13718;50.922;5.346;2022-08-19T01:28:25;19.20;99.90
25914;DHT22;13718;50.922;5.346;2022-08-19T01:30:52;19.20;99.90
25914;DHT22;13718;50.922;5.346;2022-08-19T01:33:19;19.20;99.90
25914;DHT22;13718;50.922;5.346;2022-08-19T01:35:45;19.30;99.90
25914;DHT22;13718;50.922;5.346;2022-08-19T01:38:21;19.20;99.90
25914;DHT22;13718;50.922;5.346;2022-08-19T01:40:47;19.30;99.90
25914;DHT22;13718;50.922;5.346;2022-08-19T01:43:12;19.30;99.90
25914;DHT22;13718;50.922;5.346;2022-08-19T01:45:38;19.30;99.90
25914;DHT22;13718;50.922;5.346;2022-08-19T01:48:06;19.30;99.90
25914;DHT22;13718;50.922;5.346;2022-08-19T01:50:33;19.30;99.90
25914;DHT22;13718;50.922;5.346;2022-08-19T01:53:01;19.30;99.90
25914;DHT22;13718;50.922;5.346;2022-08-19T01:55:26;19.30;99.90
25914;DHT22;13718;50.922;5.346;2022-08-19T01:57:55;19.30;99.90
25914;DHT22;13718;50.922;5.346;2022-08-19T02:00:25;19.20;99.90
25914;DHT22;13718;50.922;5.346;2022-08-19T02:02:51;19.20;99.90
25914;DHT22;13718;50.922;5.346;2022-08-19T02:05:17;19.20;99.90
25914;DHT22;13718;50.922;5.346;2022-08-19T02:07:44;19.10;99.90
25914;DHT22;13718;50.922;5.346;2022-08-19T02:10:13;19.10;99.90
25914;DHT22;13718;50.922;5.346;2022-08-19T02:12:40;19.10;99.90
25914;DHT22;13718;50.922;5.346;2022-08-19T02:15:06;19.10;99.90
25914;DHT22;13718;50.922;5.346;2022-08-19T02:17:33;19.10;99.90
25914;DHT22;13718;50.922;5.346;2022-08-19T02:19:59;19.10;99.90
25914;DHT22;13718;50.922;5.346;2022-08-19T02:22:25;19.00;99.90
25914;DHT22;13718;50.922;5.346;2022-08-19T02:24:54;19.00;99.90
25914;DHT22;13718;50.922;5.346;2022-08-19T02:27:21;19.00;99.90
25914;DHT22;13718;50.922;5.346;2022-08-19T02:29:47;19.00;99.90
25914;DHT22;13718;50.922;5.346;2022-08-19T02:32:14;18.90;99.90
25914;DHT22;13718;50.922;5.346;2022-08-19T02:34:40;18.80;99.90
25914;DHT22;13718;50.922;5.346;2022-08-19T02:37:06;18.80;99.90
25914;DHT22;13718;50.922;5.346;2022-08-19T02:39:51;18.80;99.90
25914;DHT22;13718;50.922;5.346;2022-08-19T02:42:17;18.80;99.90
25914;DHT22;13718;50.922;5.346;2022-08-19T02:44:42;18.80;99.90
25914;DHT22;13718;50.922;5.346;2022-08-19T02:47:10;18.80;99.90
25914;DHT22;13718;50.922;5.346;2022-08-19T02:49:35;18.70;99.90
25914;DHT22;13718;50.922;5.346;2022-08-19T02:52:01;18.80;99.90
25914;DHT22;13718;50.922;5.346;2022-08-19T02:54:27;18.80;99.90
25914;DHT22;13718;50.922;5.346;2022-08-19T02:56:54;18.80;99.90
25914;DHT22;13718;50.922;5.346;2022-08-19T02:59:19;18.80;99.90
25914;DHT22;13718;50.922;5.346;2022-08-19T03:01:45;18.80;99.90
25914;DHT22;13718;50.922;5.346;2022-08-19T03:04:13;18.80;99.90
25914;DHT22;13718;50.922;5.346;2022-08-19T03:06:41;18.80;99.90
25914;DHT22;13718;50.922;5.346;2022-08-19T03:09:08;18.80;99.90
25914;DHT22;13718;50.922;5.346;2022-08-19T03:11:33;18.80;99.90
25914;DHT22;13718;50.922;5.346;2022-08-19T03:14:00;18.80;99.90
25914;DHT22;13718;50.922;5.346;2022-08-19T03:16:28;18.80;99.90
25914;DHT22;13718;50.922;5.346;2022-08-19T03:18:56;18.80;99.90
25914;DHT22;13718;50.922;5.346;2022-08-19T03:21:27;18.80;99.90
25914;DHT22;13718;50.922;5.346;2022-08-19T03:23:55;18.80;99.90
25914;DHT22;13718;50.922;5.346;2022-08-19T03:26:21;18.70;99.90
25914;DHT22;13718;50.922;5.346;2022-08-19T03:28:47;18.70;99.90
25914;DHT22;13718;50.922;5.346;2022-08-19T03:31:17;18.80;99.90
25914;DHT22;13718;50.922;5.346;2022-08-19T03:33:43;18.70;99.90
25914;DHT22;13718;50.922;5.346;2022-08-19T03:38:36;18.60;99.90
25914;DHT22;13718;50.922;5.346;2022-08-19T03:41:04;18.60;99.90
25914;DHT22;13718;50.922;5.346;2022-08-19T03:43:32;18.60;99.90
25914;DHT22;13718;50.922;5.346;2022-08-19T03:46:03;18.60;99.90
25914;DHT22;13718;50.922;5.346;2022-08-19T03:48:30;18.60;99.90
25914;DHT22;13718;50.922;5.346;2022-08-19T03:50:56;18.50;99.90
25914;DHT22;13718;50.922;5.346;2022-08-19T03:53:23;18.50;99.90
25914;DHT22;13718;50.922;5.346;2022-08-19T03:55:49;18.50;99.90
25914;DHT22;13718;50.922;5.346;2022-08-19T03:58:14;18.40;99.90
25914;DHT22;13718;50.922;5.346;2022-08-19T04:00:42;18.40;99.90
25914;DHT22;13718;50.922;5.346;2022-08-19T04:03:08;18.40;99.90
25914;DHT22;13718;50.922;5.346;2022-08-19T04:05:33;18.40;99.90
25914;DHT22;13718;50.922;5.346;2022-08-19T04:07:59;18.30;99.90
25914;DHT22;13718;50.922;5.346;2022-08-19T04:10:26;18.30;99.90
25914;DHT22;13718;50.922;5.346;2022-08-19T04:12:53;18.20;99.90
25914;DHT22;13718;50.922;5.346;2022-08-19T04:15:19;18.20;99.90
25914;DHT22;13718;50.922;5.346;2022-08-19T04:17:45;18.20;99.90
25914;DHT22;13718;50.922;5.346;2022-08-19T04:20:11;18.20;99.90
25914;DHT22;13718;50.922;5.346;2022-08-19T04:22:37;18.20;99.90
25914;DHT22;13718;50.922;5.346;2022-08-19T04:25:03;18.20;99.90
25914;DHT22;13718;50.922;5.346;2022-08-19T04:27:28;18.20;99.90
25914;DHT22;13718;50.922;5.346;2022-08-19T04:29:54;18.10;99.90
25914;DHT22;13718;50.922;5.346;2022-08-19T04:32:20;18.10;99.90
25914;DHT22;13718;50.922;5.346;2022-08-19T04:34:46;18.20;99.90
25914;DHT22;13718;50.922;5.346;2022-08-19T04:37:12;18.10;99.90
25914;DHT22;13718;50.922;5.346;2022-08-19T04:39:39;18.20;99.90
25914;DHT22;13718;50.922;5.346;2022-08-19T04:42:23;18.10;99.90
25914;DHT22;13718;50.922;5.346;2022-08-19T04:45:12;18.10;99.90
25914;DHT22;13718;50.922;5.346;2022-08-19T04:47:42;18.10;99.90
25914;DHT22;13718;50.922;5.346;2022-08-19T04:50:09;18.10;99.90
25914;DHT22;13718;50.922;5.346;2022-08-19T04:52:38;18.20;99.90
25914;DHT22;13718;50.922;5.346;2022-08-19T04:55:08;18.20;99.90
25914;DHT22;13718;50.922;5.346;2022-08-19T04:57:34;18.20;99.90
25914;DHT22;13718;50.922;5.346;2022-08-19T05:00:00;18.10;99.90
25914;DHT22;13718;50.922;5.346;2022-08-19T05:02:26;18.20;99.90
25914;DHT22;13718;50.922;5.346;2022-08-19T05:04:57;18.20;99.90
25914;DHT22;13718;50.922;5.346;2022-08-19T05:07:24;18.20;99.90
25914;DHT22;13718;50.922;5.346;2022-08-19T05:09:50;18.20;99.90
25914;DHT22;13718;50.922;5.346;2022-08-19T05:12:16;18.20;99.90
25914;DHT22;13718;50.922;5.346;2022-08-19T05:14:42;18.20;99.90
25914;DHT22;13718;50.922;5.346;2022-08-19T05:17:08;18.20;99.90
25914;DHT22;13718;50.922;5.346;2022-08-19T05:19:34;18.30;99.90
25914;DHT22;13718;50.922;5.346;2022-08-19T05:22:18;18.40;99.90
25914;DHT22;13718;50.922;5.346;2022-08-19T05:25:08;18.50;99.90
25914;DHT22;13718;50.922;5.346;2022-08-19T05:27:35;18.50;99.90
25914;DHT22;13718;50.922;5.346;2022-08-19T05:30:01;18.50;99.90
25914;DHT22;13718;50.922;5.346;2022-08-19T05:32:28;18.50;99.90
25914;DHT22;13718;50.922;5.346;2022-08-19T05:34:53;18.60;99.90
25914;DHT22;13718;50.922;5.346;2022-08-19T05:37:19;18.70;99.90
25914;DHT22;13718;50.922;5.346;2022-08-19T05:39:45;18.70;99.90
25914;DHT22;13718;50.922;5.346;2022-08-19T05:42:11;18.80;99.90
25914;DHT22;13718;50.922;5.346;2022-08-19T05:44:40;18.90;99.90
25914;DHT22;13718;50.922;5.346;2022-08-19T05:47:10;19.00;99.90
25914;DHT22;13718;50.922;5.346;2022-08-19T05:49:37;19.10;99.90
25914;DHT22;13718;50.922;5.346;2022-08-19T05:52:05;19.20;99.90
25914;DHT22;13718;50.922;5.346;2022-08-19T05:54:31;19.30;99.90
25914;DHT22;13718;50.922;5.346;2022-08-19T05:56:57;19.50;99.90
25914;DHT22;13718;50.922;5.346;2022-08-19T05:59:23;19.70;99.90
25914;DHT22;13718;50.922;5.346;2022-08-19T06:01:51;19.80;99.90
25914;DHT22;13718;50.922;5.346;2022-08-19T06:04:18;20.00;99.90
25914;DHT22;13718;50.922;5.346;2022-08-19T06:06:48;20.10;99.90
25914;DHT22;13718;50.922;5.346;2022-08-19T06:09:14;20.20;99.90
25914;DHT22;13718;50.922;5.346;2022-08-19T06:11:49;20.40;99.90
25914;DHT22;13718;50.922;5.346;2022-08-19T06:14:20;20.60;99.90
25914;DHT22;13718;50.922;5.346;2022-08-19T06:16:46;20.80;99.90
25914;DHT22;13718;50.922;5.346;2022-08-19T06:19:17;21.10;99.90
25914;DHT22;13718;50.922;5.346;2022-08-19T06:21:46;21.30;99.90
25914;DHT22;13718;50.922;5.346;2022-08-19T06:24:14;21.40;99.90
25914;DHT22;13718;50.922;5.346;2022-08-19T06:26:43;21.60;99.90
25914;DHT22;13718;50.922;5.346;2022-08-19T06:29:11;21.60;99.90
25914;DHT22;13718;50.922;5.346;2022-08-19T06:31:40;21.90;99.90
25914;DHT22;13718;50.922;5.346;2022-08-19T06:34:06;22.10;99.90
25914;DHT22;13718;50.922;5.346;2022-08-19T06:36:40;22.10;99.90
25914;DHT22;13718;50.922;5.346;2022-08-19T06:39:10;22.20;99.90
25914;DHT22;13718;50.922;5.346;2022-08-19T06:41:39;22.20;99.90
25914;DHT22;13718;50.922;5.346;2022-08-19T06:44:06;22.30;99.90
25914;DHT22;13718;50.922;5.346;2022-08-19T06:46:32;22.40;99.90
25914;DHT22;13718;50.922;5.346;2022-08-19T06:48:58;22.60;99.90
25914;DHT22;13718;50.922;5.346;2022-08-19T06:51:24;22.70;99.90
25914;DHT22;13718;50.922;5.346;2022-08-19T06:53:52;22.80;99.90
25914;DHT22;13718;50.922;5.346;2022-08-19T06:56:21;22.90;99.90
25914;DHT22;13718;50.922;5.346;2022-08-19T06:58:48;23.10;99.90
25914;DHT22;13718;50.922;5.346;2022-08-19T07:01:17;23.30;99.90
25914;DHT22;13718;50.922;5.346;2022-08-19T07:03:42;23.40;99.90
25914;DHT22;13718;50.922;5.346;2022-08-19T07:06:14;23.60;99.90
25914;DHT22;13718;50.922;5.346;2022-08-19T07:08:44;23.80;99.90
25914;DHT22;13718;50.922;5.346;2022-08-19T07:11:11;23.90;99.90
25914;DHT22;13718;50.922;5.346;2022-08-19T07:13:38;24.00;99.90
25914;DHT22;13718;50.922;5.346;2022-08-19T07:16:10;24.10;99.90
25914;DHT22;13718;50.922;5.346;2022-08-19T07:18:36;24.00;99.90
25914;DHT22;13718;50.922;5.346;2022-08-19T07:21:08;24.00;99.90
25914;DHT22;13718;50.922;5.346;2022-08-19T07:23:35;23.80;99.90
25914;DHT22;13718;50.922;5.346;2022-08-19T07:26:17;23.70;99.90
25914;DHT22;13718;50.922;5.346;2022-08-19T07:28:45;23.50;99.90
25914;DHT22;13718;50.922;5.346;2022-08-19T07:31:19;23.30;99.90
25914;DHT22;13718;50.922;5.346;2022-08-19T07:33:47;23.20;99.90
25914;DHT22;13718;50.922;5.346;2022-08-19T07:36:16;23.10;99.90
25914;DHT22;13718;50.922;5.346;2022-08-19T07:38:44;23.30;99.90
25914;DHT22;13718;50.922;5.346;2022-08-19T07:41:12;23.40;99.90
25914;DHT22;13718;50.922;5.346;2022-08-19T07:43:39;23.40;99.90
25914;DHT22;13718;50.922;5.346;2022-08-19T07:46:06;23.60;99.90
25914;DHT22;13718;50.922;5.346;2022-08-19T07:48:32;23.70;99.90
25914;DHT22;13718;50.922;5.346;2022-08-19T07:50:59;24.00;99.90
25914;DHT22;13718;50.922;5.346;2022-08-19T07:53:28;24.60;99.90
25914;DHT22;13718;50.922;5.346;2022-08-19T07:55:54;25.60;99.90
25914;DHT22;13718;50.922;5.346;2022-08-19T07:58:21;25.90;99.90
25914;DHT22;13718;50.922;5.346;2022-08-19T08:00:50;26.00;99.90
25914;DHT22;13718;50.922;5.346;2022-08-19T08:03:18;25.80;99.90
25914;DHT22;13718;50.922;5.346;2022-08-19T08:05:45;25.50;99.90
25914;DHT22;13718;50.922;5.346;2022-08-19T08:08:30;25.40;99.90
25914;DHT22;13718;50.922;5.346;2022-08-19T08:11:16;25.20;99.90
25914;DHT22;13718;50.922;5.346;2022-08-19T08:13:42;25.10;99.90
25914;DHT22;13718;50.922;5.346;2022-08-19T08:16:08;25.20;99.90
25914;DHT22;13718;50.922;5.346;2022-08-19T08:18:34;25.20;99.90
25914;DHT22;13718;50.922;5.346;2022-08-19T08:21:06;25.40;99.90
25914;DHT22;13718;50.922;5.346;2022-08-19T08:23:32;25.70;99.90
25914;DHT22;13718;50.922;5.346;2022-08-19T08:25:58;25.60;99.90
25914;DHT22;13718;50.922;5.346;2022-08-19T08:28:25;25.80;99.90
25914;DHT22;13718;50.922;5.346;2022-08-19T08:30:51;25.90;99.90
25914;DHT22;13718;50.922;5.346;2022-08-19T08:33:19;25.90;99.90
25914;DHT22;13718;50.922;5.346;2022-08-19T08:35:45;25.90;99.90
25914;DHT22;13718;50.922;5.346;2022-08-19T08:38:11;25.60;99.90
25914;DHT22;13718;50.922;5.346;2022-08-19T08:43:22;26.60;99.90
25914;DHT22;13718;50.922;5.346;2022-08-19T08:50:54;28.20;99.20
25914;DHT22;13718;50.922;5.346;2022-08-19T08:53:22;28.60;98.40
25914;DHT22;13718;50.922;5.346;2022-08-19T08:55:48;28.40;97.70
25914;DHT22;13718;50.922;5.346;2022-08-19T08:58:29;28.10;97.90
25914;DHT22;13718;50.922;5.346;2022-08-19T09:00:57;28.50;97.70
25914;DHT22;13718;50.922;5.346;2022-08-19T09:03:26;28.70;96.70
25914;DHT22;13718;50.922;5.346;2022-08-19T09:06:09;29.00;96.60
25914;DHT22;13718;50.922;5.346;2022-08-19T09:11:15;30.90;92.20
25914;DHT22;13718;50.922;5.346;2022-08-19T09:14:32;30.80;91.00
25914;DHT22;13718;50.922;5.346;2022-08-19T09:16:58;31.90;90.10
25914;DHT22;13718;50.922;5.346;2022-08-19T09:19:25;32.90;86.60
25914;DHT22;13718;50.922;5.346;2022-08-19T09:21:50;33.80;81.70
25914;DHT22;13718;50.922;5.346;2022-08-19T09:24:16;34.00;78.30
25914;DHT22;13718;50.922;5.346;2022-08-19T09:26:42;32.90;79.40
25914;DHT22;13718;50.922;5.346;2022-08-19T09:29:09;31.50;82.60
25914;DHT22;13718;50.922;5.346;2022-08-19T09:31:36;30.50;85.00
25914;DHT22;13718;50.922;5.346;2022-08-19T09:34:01;29.60;87.70
25914;DHT22;13718;50.922;5.346;2022-08-19T09:36:30;28.90;90.00
25914;DHT22;13718;50.922;5.346;2022-08-19T09:39:05;28.30;90.50
25914;DHT22;13718;50.922;5.346;2022-08-19T09:41:31;27.90;91.40
25914;DHT22;13718;50.922;5.346;2022-08-19T09:43:58;27.60;91.80
25914;DHT22;13718;50.922;5.346;2022-08-19T09:46:26;27.30;92.20
25914;DHT22;13718;50.922;5.346;2022-08-19T09:48:53;27.20;92.70
25914;DHT22;13718;50.922;5.346;2022-08-19T09:51:24;27.10;92.50
25914;DHT22;13718;50.922;5.346;2022-08-19T09:53:52;27.00;92.80
25914;DHT22;13718;50.922;5.346;2022-08-19T09:56:20;27.00;93.20
25914;DHT22;13718;50.922;5.346;2022-08-19T09:58:46;27.10;93.20
25914;DHT22;13718;50.922;5.346;2022-08-19T10:01:20;27.30;92.90
25914;DHT22;13718;50.922;5.346;2022-08-19T10:03:51;27.20;92.60
25914;DHT22;13718;50.922;5.346;2022-08-19T10:06:19;27.20;92.20
25914;DHT22;13718;50.922;5.346;2022-08-19T10:08:46;27.20;92.30
25914;DHT22;13718;50.922;5.346;2022-08-19T10:11:11;27.20;91.30
25914;DHT22;13718;50.922;5.346;2022-08-19T10:13:39;27.10;91.20
25914;DHT22;13718;50.922;5.346;2022-08-19T10:16:08;27.00;91.50
25914;DHT22;13718;50.922;5.346;2022-08-19T10:18:35;27.00;92.10
25914;DHT22;13718;50.922;5.346;2022-08-19T10:21:12;27.10;91.80
25914;DHT22;13718;50.922;5.346;2022-08-19T10:23:40;27.20;91.80
25914;DHT22;13718;50.922;5.346;2022-08-19T10:26:07;27.20;91.80
25914;DHT22;13718;50.922;5.346;2022-08-19T10:28:36;27.20;92.10
25914;DHT22;13718;50.922;5.346;2022-08-19T10:31:26;27.20;92.20
25914;DHT22;13718;50.922;5.346;2022-08-19T10:33:53;27.30;92.30
25914;DHT22;13718;50.922;5.346;2022-08-19T10:36:26;27.30;92.30
25914;DHT22;13718;50.922;5.346;2022-08-19T10:38:55;27.40;91.80
25914;DHT22;13718;50.922;5.346;2022-08-19T10:41:25;27.40;92.10
25914;DHT22;13718;50.922;5.346;2022-08-19T10:43:56;27.50;92.60
25914;DHT22;13718;50.922;5.346;2022-08-19T10:46:24;27.60;92.70
25914;DHT22;13718;50.922;5.346;2022-08-19T10:48:51;27.70;92.30
25914;DHT22;13718;50.922;5.346;2022-08-19T10:51:17;27.70;92.30
25914;DHT22;13718;50.922;5.346;2022-08-19T10:54:01;27.80;92.30
25914;DHT22;13718;50.922;5.346;2022-08-19T10:56:28;27.90;92.10
25914;DHT22;13718;50.922;5.346;2022-08-19T10:59:12;28.20;91.60
25914;DHT22;13718;50.922;5.346;2022-08-19T11:01:40;28.30;91.60
25914;DHT22;13718;50.922;5.346;2022-08-19T11:04:06;28.30;91.60
25914;DHT22;13718;50.922;5.346;2022-08-19T11:06:36;28.30;91.60
25914;DHT22;13718;50.922;5.346;2022-08-19T11:09:02;28.30;91.10
25914;DHT22;13718;50.922;5.346;2022-08-19T11:11:28;28.30;91.30
25914;DHT22;13718;50.922;5.346;2022-08-19T11:13:54;28.20;91.40
25914;DHT22;13718;50.922;5.346;2022-08-19T11:16:23;28.10;91.30
25914;DHT22;13718;50.922;5.346;2022-08-19T11:18:52;28.10;91.60
25914;DHT22;13718;50.922;5.346;2022-08-19T11:21:24;28.20;91.60
25914;DHT22;13718;50.922;5.346;2022-08-19T11:23:53;28.40;91.50
25914;DHT22;13718;50.922;5.346;2022-08-19T11:26:20;28.40;91.00
25914;DHT22;13718;50.922;5.346;2022-08-19T11:28:46;28.50;91.40
25914;DHT22;13718;50.922;5.346;2022-08-19T11:31:15;28.70;90.90
25914;DHT22;13718;50.922;5.346;2022-08-19T11:33:41;28.90;90.80
25914;DHT22;13718;50.922;5.346;2022-08-19T11:36:07;29.00;91.10
25914;DHT22;13718;50.922;5.346;2022-08-19T11:38:34;29.00;90.80
25914;DHT22;13718;50.922;5.346;2022-08-19T11:41:03;29.20;90.50
25914;DHT22;13718;50.922;5.346;2022-08-19T11:43:29;29.10;90.80
25914;DHT22;13718;50.922;5.346;2022-08-19T11:45:56;29.00;90.50
25914;DHT22;13718;50.922;5.346;2022-08-19T11:48:23;29.00;91.00
25914;DHT22;13718;50.922;5.346;2022-08-19T11:50:50;29.10;90.70
25914;DHT22;13718;50.922;5.346;2022-08-19T11:53:18;29.10;90.80
25914;DHT22;13718;50.922;5.346;2022-08-19T11:55:44;29.10;90.60
25914;DHT22;13718;50.922;5.346;2022-08-19T11:58:11;29.00;90.60
25914;DHT22;13718;50.922;5.346;2022-08-19T12:00:38;29.00;90.80
25914;DHT22;13718;50.922;5.346;2022-08-19T12:03:04;28.90;91.20
25914;DHT22;13718;50.922;5.346;2022-08-19T12:05:29;28.80;91.20
25914;DHT22;13718;50.922;5.346;2022-08-19T12:07:55;28.60;91.50
25914;DHT22;13718;50.922;5.346;2022-08-19T12:10:21;28.30;91.90
25914;DHT22;13718;50.922;5.346;2022-08-19T12:12:47;28.20;92.20
25914;DHT22;13718;50.922;5.346;2022-08-19T12:15:13;28.10;92.60
25914;DHT22;13718;50.922;5.346;2022-08-19T12:17:40;28.20;92.80
25914;DHT22;13718;50.922;5.346;2022-08-19T12:20:11;28.30;92.50
25914;DHT22;13718;50.922;5.346;2022-08-19T12:22:38;28.20;92.50
25914;DHT22;13718;50.922;5.346;2022-08-19T12:25:07;28.00;92.50
25914;DHT22;13718;50.922;5.346;2022-08-19T12:27:33;27.90;93.10
25914;DHT22;13718;50.922;5.346;2022-08-19T12:30:01;27.90;93.10
25914;DHT22;13718;50.922;5.346;2022-08-19T12:32:27;27.90;93.20
25914;DHT22;13718;50.922;5.346;2022-08-19T12:34:53;27.90;93.30
25914;DHT22;13718;50.922;5.346;2022-08-19T12:37:19;27.90;93.20
25914;DHT22;13718;50.922;5.346;2022-08-19T12:39:45;27.90;93.20
25914;DHT22;13718;50.922;5.346;2022-08-19T12:42:12;27.90;93.10
25914;DHT22;13718;50.922;5.346;2022-08-19T12:44:40;27.70;93.50
25914;DHT22;13718;50.922;5.346;2022-08-19T12:47:06;27.60;93.90
25914;DHT22;13718;50.922;5.346;2022-08-19T12:49:33;27.40;94.30
25914;DHT22;13718;50.922;5.346;2022-08-19T12:52:03;27.40;94.30
25914;DHT22;13718;50.922;5.346;2022-08-19T12:54:30;27.30;94.50
25914;DHT22;13718;50.922;5.346;2022-08-19T12:56:56;27.40;94.70
25914;DHT22;13718;50.922;5.346;2022-08-19T12:59:22;27.50;94.60
25914;DHT22;13718;50.922;5.346;2022-08-19T13:01:47;27.50;94.60
25914;DHT22;13718;50.922;5.346;2022-08-19T13:04:13;27.50;94.70
25914;DHT22;13718;50.922;5.346;2022-08-19T13:06:39;27.50;94.50
25914;DHT22;13718;50.922;5.346;2022-08-19T13:09:05;27.50;94.60
25914;DHT22;13718;50.922;5.346;2022-08-19T13:11:31;27.50;94.40
25914;DHT22;13718;50.922;5.346;2022-08-19T13:13:59;27.60;94.60
25914;DHT22;13718;50.922;5.346;2022-08-19T13:16:25;27.70;94.70
25914;DHT22;13718;50.922;5.346;2022-08-19T13:18:53;27.60;94.40
25914;DHT22;13718;50.922;5.346;2022-08-19T13:21:21;27.60;94.90
25914;DHT22;13718;50.922;5.346;2022-08-19T13:23:48;27.60;94.80
25914;DHT22;13718;50.922;5.346;2022-08-19T13:26:14;27.60;94.90
25914;DHT22;13718;50.922;5.346;2022-08-19T13:28:40;27.60;95.20
25914;DHT22;13718;50.922;5.346;2022-08-19T13:31:27;27.30;95.50
25914;DHT22;13718;50.922;5.346;2022-08-19T13:34:12;27.30;95.70
25914;DHT22;13718;50.922;5.346;2022-08-19T13:36:38;27.20;95.90
25914;DHT22;13718;50.922;5.346;2022-08-19T13:39:06;27.20;96.10
25914;DHT22;13718;50.922;5.346;2022-08-19T13:41:33;27.10;96.00
25914;DHT22;13718;50.922;5.346;2022-08-19T13:43:59;27.10;96.20
25914;DHT22;13718;50.922;5.346;2022-08-19T13:46:25;27.10;96.10
25914;DHT22;13718;50.922;5.346;2022-08-19T13:48:52;27.00;96.30
25914;DHT22;13718;50.922;5.346;2022-08-19T13:51:18;27.00;96.70
25914;DHT22;13718;50.922;5.346;2022-08-19T13:53:44;27.10;96.60
25914;DHT22;13718;50.922;5.346;2022-08-19T13:56:15;27.20;96.60
25914;DHT22;13718;50.922;5.346;2022-08-19T13:58:41;27.20;96.50
25914;DHT22;13718;50.922;5.346;2022-08-19T14:01:07;27.40;96.20
25914;DHT22;13718;50.922;5.346;2022-08-19T14:03:34;27.60;96.20
25914;DHT22;13718;50.922;5.346;2022-08-19T14:06:00;27.70;96.20
25914;DHT22;13718;50.922;5.346;2022-08-19T14:08:26;27.90;96.20
25914;DHT22;13718;50.922;5.346;2022-08-19T14:10:54;28.10;95.60
25914;DHT22;13718;50.922;5.346;2022-08-19T14:13:21;28.30;95.60
25914;DHT22;13718;50.922;5.346;2022-08-19T14:15:48;28.30;95.10
25914;DHT22;13718;50.922;5.346;2022-08-19T14:18:18;28.40;95.10
25914;DHT22;13718;50.922;5.346;2022-08-19T14:20:44;28.40;94.90
25914;DHT22;13718;50.922;5.346;2022-08-19T14:23:10;28.40;94.90
25914;DHT22;13718;50.922;5.346;2022-08-19T14:25:37;28.40;95.00
25914;DHT22;13718;50.922;5.346;2022-08-19T14:28:03;28.50;94.80
25914;DHT22;13718;50.922;5.346;2022-08-19T14:30:31;28.40;94.70
25914;DHT22;13718;50.922;5.346;2022-08-19T14:32:58;28.20;94.40
25914;DHT22;13718;50.922;5.346;2022-08-19T14:35:25;28.20;94.80
25914;DHT22;13718;50.922;5.346;2022-08-19T14:37:53;28.20;94.90
25914;DHT22;13718;50.922;5.346;2022-08-19T14:40:26;28.30;95.10
25914;DHT22;13718;50.922;5.346;2022-08-19T14:42:53;28.40;94.90
25914;DHT22;13718;50.922;5.346;2022-08-19T14:45:21;28.20;94.80
25914;DHT22;13718;50.922;5.346;2022-08-19T14:47:46;28.10;95.10
25914;DHT22;13718;50.922;5.346;2022-08-19T14:50:12;28.00;95.10
25914;DHT22;13718;50.922;5.346;2022-08-19T14:52:39;28.10;95.20
25914;DHT22;13718;50.922;5.346;2022-08-19T14:55:05;28.10;94.90
25914;DHT22;13718;50.922;5.346;2022-08-19T14:57:31;28.10;94.90
25914;DHT22;13718;50.922;5.346;2022-08-19T14:59:56;28.10;94.90
25914;DHT22;13718;50.922;5.346;2022-08-19T15:02:22;28.10;94.50
25914;DHT22;13718;50.922;5.346;2022-08-19T15:04:48;28.00;94.70
25914;DHT22;13718;50.922;5.346;2022-08-19T15:07:14;27.90;94.60
25914;DHT22;13718;50.922;5.346;2022-08-19T15:09:39;28.00;94.50
25914;DHT22;13718;50.922;5.346;2022-08-19T15:12:05;28.00;94.50
25914;DHT22;13718;50.922;5.346;2022-08-19T15:14:31;28.00;94.90
25914;DHT22;13718;50.922;5.346;2022-08-19T15:16:59;28.00;94.40
25914;DHT22;13718;50.922;5.346;2022-08-19T15:19:24;28.00;94.00
25914;DHT22;13718;50.922;5.346;2022-08-19T15:21:50;27.90;94.20
25914;DHT22;13718;50.922;5.346;2022-08-19T15:24:15;27.80;94.60
25914;DHT22;13718;50.922;5.346;2022-08-19T15:26:41;27.80;94.80
25914;DHT22;13718;50.922;5.346;2022-08-19T15:29:07;27.90;94.70
25914;DHT22;13718;50.922;5.346;2022-08-19T15:31:33;27.80;94.80
25914;DHT22;13718;50.922;5.346;2022-08-19T15:34:01;27.70;94.80
25914;DHT22;13718;50.922;5.346;2022-08-19T15:36:27;27.50;95.00
25914;DHT22;13718;50.922;5.346;2022-08-19T15:38:54;27.40;95.20
25914;DHT22;13718;50.922;5.346;2022-08-19T15:41:23;27.30;95.50
25914;DHT22;13718;50.922;5.346;2022-08-19T15:43:55;27.20;95.60
25914;DHT22;13718;50.922;5.346;2022-08-19T15:46:23;27.10;96.00
25914;DHT22;13718;50.922;5.346;2022-08-19T15:48:51;27.00;96.30